createdAt,value
2023-04-15T00:01:12.172Z,7.30
2023-04-15T00:03:39.886Z,7.30
2023-04-15T00:06:07.899Z,7.30
2023-04-15T00:08:35.110Z,7.30
2023-04-15T00:11:05.990Z,7.20
2023-04-15T00:13:34.340Z,7.20
2023-04-15T00:16:02.486Z,7.20
2023-04-15T00:18:30.172Z,7.20
2023-04-15T00:20:57.358Z,7.10
2023-04-15T00:23:24.773Z,7.10
2023-04-15T00:25:52.258Z,7.10
2023-04-15T00:28:19.621Z,7.10
2023-04-15T00:30:47.490Z,7.10
2023-04-15T00:33:16.715Z,7.10
2023-04-15T00:35:43.927Z,7.10
2023-04-15T00:38:11.683Z,7.20
2023-04-15T00:40:39.055Z,7.20
2023-04-15T00:43:06.221Z,7.20
2023-04-15T00:45:33.637Z,7.20
2023-04-15T00:48:01.066Z,7.20
2023-04-15T00:50:28.293Z,7.20
2023-04-15T00:52:55.487Z,7.20
2023-04-15T00:55:22.730Z,7.20
2023-04-15T00:57:50.850Z,7.20
2023-04-15T01:00:18.389Z,7.10
2023-04-15T01:02:46.412Z,7.10
2023-04-15T01:05:13.873Z,7.10
2023-04-15T01:07:41.033Z,7.10
2023-04-15T01:10:08.960Z,7.10
2023-04-15T01:12:38.016Z,7.00
2023-04-15T01:15:05.995Z,7.00
2023-04-15T01:17:33.579Z,7.00
2023-04-15T01:20:00.847Z,7.00
2023-04-15T01:22:29.011Z,6.90
2023-04-15T01:25:10.152Z,7.00
2023-04-15T01:27:41.194Z,6.90
2023-04-15T01:30:09.793Z,6.90
2023-04-15T01:32:37.371Z,6.90
2023-04-15T01:35:05.116Z,6.90
2023-04-15T01:37:33.324Z,6.90
2023-04-15T01:40:00.534Z,6.80
2023-04-15T01:42:27.957Z,6.80
2023-04-15T01:44:55.260Z,6.80
2023-04-15T01:47:22.705Z,6.80
2023-04-15T01:49:49.943Z,6.80
2023-04-15T01:52:17.116Z,6.80
2023-04-15T01:54:44.359Z,6.80
2023-04-15T01:57:11.606Z,6.80
2023-04-15T01:59:38.827Z,6.70
2023-04-15T02:02:06.035Z,6.70
2023-04-15T02:04:34.453Z,6.70
2023-04-15T02:07:01.850Z,6.70
2023-04-15T02:09:29.405Z,6.70
2023-04-15T02:11:57.690Z,6.70
2023-04-15T02:14:24.854Z,6.70
2023-04-15T02:16:52.122Z,6.70
2023-04-15T02:19:19.385Z,6.70
2023-04-15T02:21:46.594Z,6.60
2023-04-15T02:24:13.818Z,6.70
2023-04-15T02:26:41.030Z,6.60
2023-04-15T02:29:08.127Z,6.60
2023-04-15T02:31:38.270Z,6.60
2023-04-15T02:34:05.773Z,6.60
2023-04-15T02:36:33.236Z,6.60
2023-04-15T02:39:00.964Z,6.60
2023-04-15T02:41:30.287Z,6.60
2023-04-15T02:43:57.509Z,6.60
2023-04-15T02:46:24.908Z,6.60
2023-04-15T02:48:53.578Z,6.60
2023-04-15T02:51:22.957Z,6.50
2023-04-15T02:53:50.794Z,6.50
2023-04-15T02:56:19.645Z,6.50
2023-04-15T02:58:46.881Z,6.50
2023-04-15T03:01:14.261Z,6.50
2023-04-15T03:03:41.641Z,6.50
2023-04-15T03:06:09.258Z,6.50
2023-04-15T03:08:36.635Z,6.50
2023-04-15T03:11:04.736Z,6.40
2023-04-15T03:13:32.012Z,6.40
2023-04-15T03:15:59.285Z,6.40
2023-04-15T03:18:26.631Z,6.40
2023-04-15T03:20:53.766Z,6.40
2023-04-15T03:23:21.117Z,6.40
2023-04-15T03:25:48.227Z,6.40
2023-04-15T03:28:15.395Z,6.40
2023-04-15T03:30:42.721Z,6.40
2023-04-15T03:33:09.910Z,6.30
2023-04-15T03:35:37.057Z,6.30
2023-04-15T03:38:04.283Z,6.40
2023-04-15T03:40:31.477Z,6.30
2023-04-15T03:42:58.715Z,6.30
2023-04-15T03:45:26.384Z,6.30
2023-04-15T03:47:53.542Z,6.30
2023-04-15T03:50:20.902Z,6.30
2023-04-15T03:52:49.570Z,6.30
2023-04-15T03:55:17.942Z,6.30
2023-04-15T03:57:45.043Z,6.40
2023-04-15T04:00:12.436Z,6.40
2023-04-15T04:02:39.750Z,6.40
2023-04-15T04:05:07.205Z,6.40
2023-04-15T04:07:34.445Z,6.50
2023-04-15T04:10:01.959Z,6.50
2023-04-15T04:12:29.273Z,6.50
2023-04-15T04:14:56.616Z,6.50
2023-04-15T04:17:23.788Z,6.50
2023-04-15T04:19:51.118Z,6.50
2023-04-15T04:22:18.365Z,6.50
2023-04-15T04:24:45.522Z,6.50
2023-04-15T04:27:12.768Z,6.50
2023-04-15T04:29:40.047Z,6.50
2023-04-15T04:32:07.589Z,6.50
2023-04-15T04:34:34.926Z,6.50
2023-04-15T04:37:02.149Z,6.60
2023-04-15T04:39:29.281Z,6.60
2023-04-15T04:41:56.432Z,6.60
2023-04-15T04:44:23.659Z,6.70
2023-04-15T04:46:50.884Z,6.70
2023-04-15T04:49:17.965Z,6.70
2023-04-15T04:51:45.578Z,6.70
2023-04-15T04:54:13.139Z,6.70
2023-04-15T04:56:40.642Z,6.80
2023-04-15T04:59:08.073Z,6.80
2023-04-15T05:01:35.360Z,6.80
2023-04-15T05:04:02.822Z,6.90
2023-04-15T05:06:31.509Z,6.90
2023-04-15T05:08:58.719Z,6.90
2023-04-15T05:11:26.323Z,7.00
2023-04-15T05:13:53.555Z,7.00
2023-04-15T05:16:20.955Z,7.00
2023-04-15T05:18:48.224Z,7.00
2023-04-15T05:21:15.776Z,7.00
2023-04-15T05:23:43.016Z,7.00
2023-04-15T05:26:10.255Z,7.00
2023-04-15T05:28:37.531Z,7.10
2023-04-15T05:31:04.857Z,7.10
2023-04-15T05:33:32.037Z,7.20
2023-04-15T05:35:59.259Z,7.40
2023-04-15T05:38:26.415Z,7.40
2023-04-15T05:40:53.588Z,7.50
2023-04-15T05:43:21.081Z,7.60
2023-04-15T05:45:48.419Z,7.50
2023-04-15T05:48:15.701Z,7.60
2023-04-15T05:50:43.391Z,7.60
2023-04-15T05:53:10.893Z,7.60
2023-04-15T05:55:38.060Z,7.60
2023-04-15T05:58:05.319Z,7.70
2023-04-15T06:00:32.480Z,7.70
2023-04-15T06:03:00.389Z,7.70
2023-04-15T06:05:28.045Z,7.70
2023-04-15T06:07:55.419Z,7.80
2023-04-15T06:10:22.700Z,7.80
2023-04-15T06:12:49.845Z,7.90
2023-04-15T06:15:17.337Z,8.00
2023-04-15T06:17:44.976Z,8.10
2023-04-15T06:20:12.804Z,8.10
2023-04-15T06:22:40.067Z,8.20
2023-04-15T06:25:09.537Z,8.30
2023-04-15T06:27:36.676Z,8.30
2023-04-15T06:30:04.586Z,8.40
2023-04-15T06:32:33.357Z,8.40
2023-04-15T06:35:00.739Z,8.50
2023-04-15T06:37:27.898Z,8.60
2023-04-15T06:39:55.136Z,8.60
2023-04-15T06:42:23.114Z,8.70
2023-04-15T06:44:50.569Z,8.80
2023-04-15T06:47:17.983Z,8.80
2023-04-15T06:49:45.189Z,8.90
2023-04-15T06:52:13.010Z,9.00
2023-04-15T06:54:40.298Z,9.10
2023-04-15T06:57:08.034Z,9.20
2023-04-15T06:59:35.651Z,9.30
2023-04-15T07:02:03.050Z,9.40
2023-04-15T07:04:30.271Z,9.40
2023-04-15T07:06:57.638Z,9.50
2023-04-15T07:09:27.042Z,9.60
2023-04-15T07:11:54.294Z,9.70
2023-04-15T07:14:21.728Z,9.70
2023-04-15T07:16:49.099Z,9.80
2023-04-15T07:19:16.394Z,9.80
2023-04-15T07:21:43.606Z,9.90
2023-04-15T07:24:10.899Z,9.90
2023-04-15T07:26:38.127Z,9.90
2023-04-15T07:29:05.247Z,9.80
2023-04-15T07:31:32.577Z,9.80
2023-04-15T07:34:00.048Z,9.80
2023-04-15T07:36:27.163Z,9.90
2023-04-15T07:38:55.526Z,9.90
2023-04-15T07:41:22.652Z,10.00
2023-04-15T07:43:50.339Z,10.20
2023-04-15T07:46:17.709Z,10.20
2023-04-15T07:48:44.912Z,10.30
2023-04-15T07:51:13.171Z,10.40
2023-04-15T07:53:40.553Z,10.50
2023-04-15T07:56:07.948Z,10.60
2023-04-15T07:58:35.115Z,10.70
2023-04-15T08:01:02.430Z,10.70
2023-04-15T08:03:29.789Z,10.70
2023-04-15T08:05:57.621Z,10.70
2023-04-15T08:08:25.259Z,10.70
2023-04-15T08:10:52.898Z,10.70
2023-04-15T08:13:21.012Z,10.70
2023-04-15T08:16:14.801Z,10.60
2023-04-15T08:18:42.092Z,10.60
2023-04-15T08:21:09.687Z,10.70
2023-04-15T08:23:37.171Z,10.70
2023-04-15T08:26:04.434Z,10.80
2023-04-15T08:28:31.870Z,10.80
2023-04-15T08:30:59.077Z,10.80
2023-04-15T08:33:26.339Z,10.90
2023-04-15T08:35:53.455Z,10.80
2023-04-15T08:38:20.707Z,11.00
2023-04-15T08:40:47.904Z,11.20
2023-04-15T08:43:28.182Z,11.40
2023-04-15T08:45:56.039Z,11.60
2023-04-15T08:48:24.754Z,11.80
2023-04-15T08:50:52.456Z,11.90
2023-04-15T08:53:19.708Z,12.10
2023-04-15T08:55:50.843Z,12.20
2023-04-15T08:58:19.977Z,12.40
2023-04-15T09:00:48.961Z,12.50
2023-04-15T09:03:17.859Z,12.50
2023-04-15T09:05:45.996Z,12.50
2023-04-15T09:08:13.349Z,12.60
2023-04-15T09:10:40.661Z,12.70
2023-04-15T09:13:08.896Z,12.70
2023-04-15T09:15:39.188Z,12.70
2023-04-15T09:18:07.175Z,12.80
2023-04-15T09:20:44.488Z,12.80
2023-04-15T09:23:15.788Z,12.90
2023-04-15T09:25:42.987Z,12.90
2023-04-15T09:28:11.137Z,13.00
2023-04-15T09:30:38.437Z,13.10
2023-04-15T09:33:08.770Z,13.20
2023-04-15T09:35:36.996Z,13.30
2023-04-15T09:38:06.578Z,13.30
2023-04-15T09:40:38.096Z,13.40
2023-04-15T09:43:06.501Z,13.30
2023-04-15T09:45:34.848Z,13.20
2023-04-15T09:48:19.095Z,13.20
2023-04-15T09:50:47.016Z,13.30
2023-04-15T09:53:21.886Z,13.30
2023-04-15T09:55:54.704Z,13.30
2023-04-15T09:58:27.006Z,13.30
2023-04-15T10:00:56.819Z,13.40
2023-04-15T10:03:26.775Z,13.60
2023-04-15T10:05:59.041Z,13.80
2023-04-15T10:08:33.143Z,13.90
2023-04-15T10:11:04.875Z,14.00
2023-04-15T10:13:37.597Z,14.10
2023-04-15T10:16:04.745Z,14.10
2023-04-15T10:18:35.922Z,14.20
2023-04-15T10:21:03.128Z,14.20
2023-04-15T10:23:30.750Z,14.20
2023-04-15T10:25:59.035Z,14.30
2023-04-15T10:28:26.904Z,14.30
2023-04-15T10:30:54.564Z,14.40
2023-04-15T10:33:24.118Z,14.40
2023-04-15T10:35:52.921Z,14.40
2023-04-15T10:38:53.078Z,14.40
2023-04-15T10:41:26.169Z,14.50
2023-04-15T10:43:56.316Z,14.70
2023-04-15T10:46:35.673Z,14.80
2023-04-15T10:49:09.501Z,14.70
2023-04-15T10:51:42.049Z,14.40
2023-04-15T10:54:28.267Z,14.20
2023-04-15T10:57:04.240Z,13.90
2023-04-15T10:59:32.298Z,13.80
2023-04-15T11:02:05.104Z,13.60
2023-04-15T11:04:54.234Z,13.30
2023-04-15T11:07:48.753Z,13.00
2023-04-15T11:10:18.771Z,12.90
2023-04-15T11:12:46.779Z,12.80
2023-04-15T11:15:40.867Z,12.80
2023-04-15T11:18:15.332Z,12.70
2023-04-15T11:20:48.291Z,12.80
2023-04-15T11:23:17.147Z,12.80
2023-04-15T11:25:44.732Z,12.90
2023-04-15T11:28:13.024Z,12.90
2023-04-15T11:30:42.449Z,13.00
2023-04-15T11:33:14.156Z,13.20
2023-04-15T11:35:42.807Z,13.20
2023-04-15T11:38:12.225Z,13.30
2023-04-15T11:40:40.220Z,13.40
2023-04-15T11:43:14.541Z,13.40
2023-04-15T11:46:02.148Z,13.40
2023-04-15T11:48:34.575Z,13.40
2023-04-15T11:51:06.425Z,13.50
2023-04-15T11:53:42.303Z,13.50
2023-04-15T11:56:11.450Z,13.60
2023-04-15T11:58:39.574Z,13.60
2023-04-15T12:01:07.551Z,13.50
2023-04-15T12:03:39.289Z,13.50
2023-04-15T12:06:22.680Z,13.50
2023-04-15T12:08:56.019Z,13.60
2023-04-15T12:11:51.588Z,13.70
2023-04-15T12:14:32.873Z,13.80
2023-04-15T12:17:07.128Z,13.90
2023-04-15T12:19:39.381Z,13.90
2023-04-15T12:22:09.196Z,13.90
2023-04-15T12:24:38.057Z,14.00
2023-04-15T12:27:10.068Z,14.10
2023-04-15T12:29:39.233Z,14.30
2023-04-15T12:32:09.614Z,14.30
2023-04-15T12:34:54.661Z,14.20
2023-04-15T12:37:22.079Z,14.20
2023-04-15T12:39:50.265Z,14.40
2023-04-15T12:42:18.313Z,14.40
2023-04-15T12:44:45.893Z,14.50
2023-04-15T12:47:14.008Z,14.30
2023-04-15T12:49:41.452Z,14.20
2023-04-15T12:52:08.856Z,14.20
2023-04-15T12:54:36.624Z,14.30
2023-04-15T12:57:06.955Z,14.40
2023-04-15T12:59:35.796Z,14.50
2023-04-15T13:02:03.374Z,14.50
2023-04-15T13:04:31.527Z,14.50
2023-04-15T13:06:59.046Z,14.60
2023-04-15T13:09:26.599Z,14.40
2023-04-15T13:11:54.725Z,14.30
2023-04-15T13:14:22.214Z,14.30
2023-04-15T13:16:49.396Z,14.20
2023-04-15T13:19:16.598Z,14.00
2023-04-15T13:21:43.834Z,13.90
2023-04-15T13:24:10.987Z,13.90
2023-04-15T13:26:38.227Z,13.90
2023-04-15T13:29:05.690Z,13.90
2023-04-15T13:31:32.980Z,13.90
2023-04-15T13:34:00.220Z,13.90
2023-04-15T13:36:27.582Z,14.10
2023-04-15T13:38:54.941Z,14.40
2023-04-15T13:41:22.178Z,14.60
2023-04-15T13:43:49.429Z,14.80
2023-04-15T13:46:16.907Z,14.80
2023-04-15T13:48:44.241Z,14.90
2023-04-15T13:51:11.388Z,15.00
2023-04-15T13:53:39.774Z,15.20
2023-04-15T13:56:10.487Z,15.20
2023-04-15T13:58:38.446Z,15.10
2023-04-15T14:01:07.301Z,15.00
2023-04-15T14:03:38.465Z,14.70
2023-04-15T14:06:06.783Z,14.40
2023-04-15T14:08:34.213Z,14.30
2023-04-15T14:11:01.643Z,14.10
2023-04-15T14:13:29.051Z,13.90
2023-04-15T14:15:57.519Z,13.60
2023-04-15T14:18:24.744Z,13.40
2023-04-15T14:20:52.119Z,13.20
2023-04-15T14:23:19.474Z,13.10
2023-04-15T14:25:48.397Z,13.00
2023-04-15T14:28:16.626Z,13.00
2023-04-15T14:30:44.072Z,13.00
2023-04-15T14:33:11.374Z,12.80
2023-04-15T14:35:39.347Z,12.60
2023-04-15T14:38:08.360Z,12.50
2023-04-15T14:40:35.590Z,12.40
2023-04-15T14:43:03.039Z,12.40
2023-04-15T14:45:31.087Z,12.30
2023-04-15T14:47:59.102Z,12.20
2023-04-15T14:50:26.352Z,12.00
2023-04-15T14:52:53.502Z,12.00
2023-04-15T14:55:20.849Z,11.80
2023-04-15T14:57:48.341Z,11.70
2023-04-15T15:00:16.345Z,11.60
2023-04-15T15:02:44.084Z,11.60
2023-04-15T15:05:12.375Z,11.60
2023-04-15T15:07:41.257Z,11.50
2023-04-15T15:10:09.043Z,11.50
2023-04-15T15:12:36.574Z,11.50
2023-04-15T15:15:12.467Z,11.40
2023-04-15T15:17:47.946Z,11.40
2023-04-15T15:20:16.941Z,11.40
2023-04-15T15:22:44.166Z,11.30
2023-04-15T15:25:11.449Z,11.20
2023-04-15T15:27:38.753Z,11.20
2023-04-15T15:30:07.122Z,11.10
2023-04-15T15:32:34.466Z,11.00
2023-04-15T15:35:01.877Z,10.90
2023-04-15T15:37:31.064Z,10.90
2023-04-15T15:39:58.291Z,10.80
2023-04-15T15:42:25.772Z,10.80
2023-04-15T15:44:55.623Z,10.60
2023-04-15T15:47:22.996Z,10.60
2023-04-15T15:49:50.469Z,10.50
2023-04-15T15:52:17.671Z,10.50
2023-04-15T15:54:44.983Z,10.50
2023-04-15T15:57:12.261Z,10.50
2023-04-15T15:59:43.890Z,10.40
2023-04-15T16:02:12.370Z,10.40
2023-04-15T16:04:40.322Z,10.40
2023-04-15T16:07:07.614Z,10.30
2023-04-15T16:09:35.043Z,10.30
2023-04-15T16:12:04.212Z,10.30
2023-04-15T16:14:31.470Z,10.30
2023-04-15T16:16:58.767Z,10.30
2023-04-15T16:19:25.981Z,10.20
2023-04-15T16:21:53.721Z,10.20
2023-04-15T16:24:21.101Z,10.20
2023-04-15T16:26:48.282Z,10.10
2023-04-15T16:29:15.813Z,10.10
2023-04-15T16:31:43.330Z,10.00
2023-04-15T16:34:10.715Z,10.00
2023-04-15T16:36:40.685Z,10.00
2023-04-15T16:39:08.101Z,9.90
2023-04-15T16:41:35.480Z,9.90
2023-04-15T16:44:03.577Z,9.90
2023-04-15T16:46:31.406Z,9.80
2023-04-15T16:48:58.771Z,9.80
2023-04-15T16:51:26.759Z,9.70
2023-04-15T16:53:53.985Z,9.70
2023-04-15T16:56:22.279Z,9.70
2023-04-15T16:58:49.879Z,9.70
2023-04-15T17:01:17.552Z,9.60
2023-04-15T17:03:46.179Z,9.60
2023-04-15T17:06:14.684Z,9.60
2023-04-15T17:08:45.044Z,9.50
2023-04-15T17:11:12.608Z,9.50
2023-04-15T17:13:39.892Z,9.50
2023-04-15T17:16:07.466Z,9.50
2023-04-15T17:18:34.648Z,9.50
2023-04-15T17:21:01.900Z,9.40
2023-04-15T17:23:29.230Z,9.40
2023-04-15T17:25:56.488Z,9.30
2023-04-15T17:28:23.766Z,9.30
2023-04-15T17:30:51.258Z,9.20
2023-04-15T17:34:00.106Z,9.20
2023-04-15T17:36:06.166Z,9.10
2023-04-15T17:38:33.301Z,9.10
2023-04-15T17:41:01.115Z,9.00
2023-04-15T17:43:28.425Z,9.00
2023-04-15T17:45:56.558Z,9.00
2023-04-15T17:48:26.523Z,9.00
2023-04-15T17:50:53.785Z,8.90
2023-04-15T17:53:21.080Z,8.90
2023-04-15T17:55:48.251Z,8.90
2023-04-15T17:58:15.491Z,8.80
2023-04-15T18:00:43.113Z,8.80
2023-04-15T18:03:10.618Z,8.80
2023-04-15T18:05:39.502Z,8.80
2023-04-15T18:08:08.172Z,8.70
2023-04-15T18:10:35.905Z,8.70
2023-04-15T18:13:03.730Z,8.70
2023-04-15T18:15:31.598Z,8.60
2023-04-15T18:17:59.668Z,8.60
2023-04-15T18:20:27.255Z,8.60
2023-04-15T18:22:54.413Z,8.60
2023-04-15T18:25:21.701Z,8.60
2023-04-15T18:27:49.083Z,8.50
2023-04-15T18:30:16.336Z,8.50
2023-04-15T18:32:44.267Z,8.50
2023-04-15T18:35:11.635Z,8.50
2023-04-15T18:37:38.856Z,8.50
2023-04-15T18:40:07.640Z,8.40
2023-04-15T18:42:35.063Z,8.40
2023-04-15T18:45:02.330Z,8.40
2023-04-15T18:47:29.961Z,8.30
2023-04-15T18:49:58.718Z,8.30
2023-04-15T18:52:25.984Z,8.30
2023-04-15T18:54:53.180Z,8.30
2023-04-15T18:57:25.867Z,8.30
2023-04-15T18:59:58.874Z,8.20
2023-04-15T19:02:26.308Z,8.20
2023-04-15T19:04:53.523Z,8.20
2023-04-15T19:07:20.904Z,8.20
2023-04-15T19:09:48.280Z,8.20
2023-04-15T19:12:15.570Z,8.20
2023-04-15T19:14:42.757Z,8.20
2023-04-15T19:17:10.066Z,8.20
2023-04-15T19:19:37.736Z,8.10
2023-04-15T19:22:05.119Z,8.10
2023-04-15T19:24:33.247Z,8.10
2023-04-15T19:27:01.738Z,8.10
2023-04-15T19:29:29.070Z,8.10
2023-04-15T19:31:56.339Z,8.00
2023-04-15T19:34:25.228Z,8.00
2023-04-15T19:36:52.440Z,8.00
2023-04-15T19:39:20.046Z,8.00
2023-04-15T19:41:47.395Z,8.00
2023-04-15T19:44:15.323Z,7.90
2023-04-15T19:46:45.013Z,7.90
2023-04-15T19:49:12.460Z,7.90
2023-04-15T19:51:39.648Z,7.90
2023-04-15T19:54:06.832Z,7.80
2023-04-15T19:56:34.561Z,7.80
2023-04-15T19:59:02.305Z,7.80
2023-04-15T20:01:29.804Z,7.80
2023-04-15T20:03:57.344Z,7.70
2023-04-15T20:06:24.646Z,7.70
2023-04-15T20:08:52.242Z,7.70
2023-04-15T20:11:19.986Z,7.70
2023-04-15T20:13:47.237Z,7.60
2023-04-15T20:16:14.496Z,7.60
2023-04-15T20:18:41.701Z,7.60
2023-04-15T20:21:08.826Z,7.60
2023-04-15T20:23:36.254Z,7.60
2023-04-15T20:26:03.405Z,7.50
2023-04-15T20:28:30.750Z,7.50
2023-04-15T20:30:58.238Z,7.50
2023-04-15T20:33:27.413Z,7.50
2023-04-15T20:35:55.375Z,7.40
2023-04-15T20:38:22.602Z,7.40
2023-04-15T20:40:49.836Z,7.40
2023-04-15T20:43:17.072Z,7.40
2023-04-15T20:45:44.408Z,7.30
2023-04-15T20:48:11.742Z,7.30
2023-04-15T20:50:39.235Z,7.30
2023-04-15T20:53:06.440Z,7.30
2023-04-15T20:55:33.893Z,7.20
2023-04-15T20:58:01.229Z,7.20
2023-04-15T21:00:28.540Z,7.10
2023-04-15T21:02:55.956Z,7.00
2023-04-15T21:05:23.296Z,7.00
2023-04-15T21:07:50.573Z,6.90
2023-04-15T21:10:17.860Z,6.90
2023-04-15T21:12:45.105Z,6.90
2023-04-15T21:15:12.978Z,6.90
2023-04-15T21:17:41.784Z,6.90
2023-04-15T21:20:09.519Z,6.90
2023-04-15T21:22:36.760Z,6.90
2023-04-15T21:25:04.247Z,6.90
2023-04-15T21:27:31.462Z,6.90
2023-04-15T21:29:58.658Z,6.90
2023-04-15T21:32:26.229Z,6.90
2023-04-15T21:34:53.388Z,6.90
2023-04-15T21:37:20.689Z,6.90
2023-04-15T21:39:47.797Z,7.00
2023-04-15T21:42:14.998Z,7.00
2023-04-15T21:44:42.249Z,7.00
2023-04-15T21:47:09.600Z,7.00
2023-04-15T21:49:37.101Z,7.00
2023-04-15T21:52:04.907Z,7.00
2023-04-15T21:54:33.498Z,7.00
2023-04-15T21:57:01.932Z,7.10
2023-04-15T21:59:29.155Z,7.00
2023-04-15T22:01:56.485Z,7.00
2023-04-15T22:04:23.992Z,7.00
2023-04-15T22:06:52.503Z,7.00
2023-04-15T22:09:19.745Z,7.00
2023-04-15T22:11:47.474Z,7.00
2023-04-15T22:14:15.249Z,7.00
2023-04-15T22:16:42.567Z,7.00
2023-04-15T22:19:09.968Z,7.00
2023-04-15T22:21:37.396Z,7.00
2023-04-15T22:24:39.260Z,7.00
2023-04-15T22:26:52.128Z,7.00
2023-04-15T22:29:19.298Z,7.00
2023-04-15T22:31:46.674Z,7.00
2023-04-15T22:34:20.854Z,7.00
2023-04-15T22:36:52.583Z,7.00
2023-04-15T22:39:20.284Z,7.00
2023-04-15T22:41:47.831Z,7.00
2023-04-15T22:44:15.639Z,7.00
2023-04-15T22:46:43.712Z,7.00
2023-04-15T22:49:11.318Z,7.00
2023-04-15T22:51:38.609Z,7.00
2023-04-15T22:54:05.963Z,7.00
2023-04-15T22:56:33.258Z,7.00
2023-04-15T22:59:00.667Z,7.00
2023-04-15T23:01:27.888Z,7.00
2023-04-15T23:03:56.845Z,7.00
2023-04-15T23:06:33.160Z,7.00
2023-04-15T23:09:00.700Z,7.00
2023-04-15T23:11:27.906Z,7.00
2023-04-15T23:13:55.100Z,6.90
2023-04-15T23:16:23.116Z,6.90
2023-04-15T23:18:50.270Z,6.90
2023-04-15T23:21:17.486Z,6.90
2023-04-15T23:23:44.883Z,6.90
2023-04-15T23:26:12.135Z,6.80
2023-04-15T23:28:39.268Z,6.80
2023-04-15T23:31:07.293Z,6.80
2023-04-15T23:33:34.593Z,6.70
2023-04-15T23:36:01.834Z,6.70
2023-04-15T23:38:29.203Z,6.70
2023-04-15T23:40:56.431Z,6.70
2023-04-15T23:43:23.569Z,6.70
2023-04-15T23:45:51.236Z,6.60
2023-04-15T23:48:18.427Z,6.60
2023-04-15T23:50:45.602Z,6.60
2023-04-15T23:53:12.744Z,6.60
2023-04-15T23:55:39.897Z,6.50
2023-04-15T23:58:07.035Z,6.50
